Time;durP1;ratioP1;P1;durP2;ratioP2;P2;SDS_P1;SDS_P2;PMS_P1;PMS_P2;Temp;Humidity;BMP_temperature;BMP_pressure;BME280_temperature;BME280_humidity;BME280_pressure;Samples;Min_cycle;Max_cycle;Signal;HPM_P1;HPM_P2
2021/07/19 00:02:00;;;;;;;5.23;3.80;;;20.80;99.90;;;;;;4957947;29;20206;-63
2021/07/19 00:04:26;;;;;;;3.67;3.40;;;20.70;99.90;;;;;;4957894;28;20217;-64
2021/07/19 00:06:52;;;;;;;4.33;3.03;;;20.70;99.90;;;;;;4943832;29;20186;-62
2021/07/19 00:09:18;;;;;;;4.07;3.70;;;20.80;99.90;;;;;;4938284;29;20163;-63
2021/07/19 00:11:44;;;;;;;4.10;3.70;;;20.90;99.90;;;;;;4948555;29;20436;-64
2021/07/19 00:14:11;;;;;;;3.50;3.20;;;20.90;99.90;;;;;;4957777;28;20425;-64
2021/07/19 00:16:37;;;;;;;5.33;3.70;;;20.90;99.90;;;;;;4957918;29;20173;-63
2021/07/19 00:19:03;;;;;;;3.90;3.20;;;20.90;99.90;;;;;;4956000;29;20512;-64
2021/07/19 00:21:29;;;;;;;7.67;4.00;;;20.80;99.90;;;;;;4957737;29;20409;-64
2021/07/19 00:23:55;;;;;;;3.83;3.53;;;20.70;99.90;;;;;;4957535;28;20433;-64
2021/07/19 00:26:21;;;;;;;5.80;3.70;;;20.60;99.90;;;;;;4957894;29;20229;-64
2021/07/19 00:28:48;;;;;;;4.80;4.17;;;20.60;99.90;;;;;;4957502;29;20543;-64
2021/07/19 00:31:13;;;;;;;6.07;3.57;;;20.60;99.90;;;;;;4955736;29;20461;-64
2021/07/19 00:33:39;;;;;;;3.83;3.40;;;20.50;99.90;;;;;;4957367;28;20461;-64
2021/07/19 00:36:05;;;;;;;5.83;3.57;;;20.40;99.90;;;;;;4957321;29;20710;-63
2021/07/19 00:38:31;;;;;;;3.70;3.40;;;20.30;99.90;;;;;;4957348;29;20644;-64
2021/07/19 00:41:03;;;;;;;3.47;3.17;;;20.30;99.90;;;;;;4955018;29;20464;-64
2021/07/19 00:43:28;;;;;;;3.40;3.20;;;20.30;99.90;;;;;;4955489;28;20266;-64
2021/07/19 00:45:54;;;;;;;4.77;3.50;;;20.30;99.90;;;;;;4957145;29;20906;-63
2021/07/19 00:48:20;;;;;;;6.43;3.67;;;20.20;99.90;;;;;;4945520;29;20226;-64
2021/07/19 00:50:46;;;;;;;5.40;3.83;;;20.30;99.90;;;;;;4938164;29;20179;-63
2021/07/19 00:53:12;;;;;;;5.80;3.67;;;20.20;99.90;;;;;;4944345;28;20182;-63
2021/07/19 00:55:43;;;;;;;6.03;4.20;;;20.10;99.90;;;;;;4957311;29;20528;-64
2021/07/19 00:58:11;;;;;;;4.10;3.70;;;20.00;99.90;;;;;;4956756;28;20253;-64
2021/07/19 01:00:42;;;;;;;6.13;3.90;;;20.10;99.90;;;;;;4955392;29;20561;-64
2021/07/19 01:03:10;;;;;;;5.20;3.73;;;20.10;99.90;;;;;;4956859;28;20391;-64
2021/07/19 01:05:38;;;;;;;4.37;3.97;;;20.20;99.90;;;;;;4956782;29;20468;-64
2021/07/19 01:08:04;;;;;;;4.47;4.07;;;20.20;99.90;;;;;;4956810;29;20405;-64
2021/07/19 01:10:31;;;;;;;3.90;3.17;;;20.00;99.90;;;;;;4956695;29;20409;-64
2021/07/19 01:12:57;;;;;;;4.10;3.70;;;19.90;99.90;;;;;;4956659;29;20416;-64
2021/07/19 01:15:26;;;;;;;3.60;3.30;;;20.00;99.90;;;;;;4956568;28;20788;-64
2021/07/19 01:17:51;;;;;;;5.03;3.90;;;20.00;99.90;;;;;;4956286;29;20409;-65
2021/07/19 01:20:19;;;;;;;4.17;3.67;;;20.00;99.90;;;;;;4956721;29;20508;-64
2021/07/19 01:23:13;;;;;;;3.67;3.37;;;20.00;99.90;;;;;;4956604;29;20747;-64
2021/07/19 01:26:02;;;;;;;5.67;3.23;;;19.90;99.90;;;;;;4956483;29;21002;-64
2021/07/19 01:28:41;;;;;;;3.93;3.63;;;20.00;99.90;;;;;;4956880;29;20473;-64
2021/07/19 01:31:21;;;;;;;3.87;3.47;;;20.00;99.90;;;;;;4956679;29;20946;-64
2021/07/19 01:33:51;;;;;;;5.83;3.93;;;20.00;99.90;;;;;;4956137;28;20425;-64
2021/07/19 01:36:22;;;;;;;4.80;3.60;;;20.00;99.90;;;;;;4956565;29;20406;-64
2021/07/19 01:38:48;;;;;;;4.83;3.83;;;20.00;99.90;;;;;;4956599;29;20413;-64
2021/07/19 01:41:17;;;;;;;6.97;3.63;;;19.90;99.90;;;;;;4955113;29;20954;-64
2021/07/19 01:43:44;;;;;;;3.43;3.00;;;20.00;99.90;;;;;;4954377;28;20210;-63
2021/07/19 01:46:11;;;;;;;3.40;3.10;;;19.80;99.90;;;;;;4956161;29;20453;-64
2021/07/19 01:48:37;;;;;;;5.80;3.43;;;19.70;99.90;;;;;;4956080;29;20406;-64
2021/07/19 01:51:03;;;;;;;3.47;3.17;;;19.70;99.90;;;;;;4956259;29;20417;-63
2021/07/19 01:53:29;;;;;;;5.20;3.70;;;19.70;99.90;;;;;;4954295;28;20449;-64
2021/07/19 01:55:57;;;;;;;4.20;3.63;;;19.70;99.90;;;;;;4956129;29;20468;-64
2021/07/19 01:58:23;;;;;;;4.43;3.77;;;19.80;99.90;;;;;;4954178;29;20639;-64
2021/07/19 02:00:50;;;;;;;4.70;3.70;;;19.70;99.90;;;;;;4944423;29;20469;-64
2021/07/19 02:03:15;;;;;;;4.07;3.77;;;19.60;99.90;;;;;;4936602;29;20814;-64
2021/07/19 02:05:43;;;;;;;3.80;3.50;;;19.70;99.90;;;;;;4937369;29;20481;-64
2021/07/19 02:08:14;;;;;;;4.43;3.83;;;19.60;99.90;;;;;;4925465;29;20190;-64
2021/07/19 02:10:40;;;;;;;5.00;3.73;;;19.60;99.90;;;;;;4935802;29;20545;-64
2021/07/19 02:13:09;;;;;;;4.40;4.00;;;19.60;99.90;;;;;;4937208;29;20489;-63
2021/07/19 02:15:37;;;;;;;4.40;4.07;;;19.60;99.90;;;;;;4936452;29;20566;-64
2021/07/19 02:18:04;;;;;;;4.93;3.43;;;19.50;99.90;;;;;;4938307;29;20942;-64
2021/07/19 02:20:31;;;;;;;4.07;3.77;;;19.60;99.90;;;;;;4955674;29;20428;-64
2021/07/19 02:22:58;;;;;;;4.53;4.13;;;19.50;99.90;;;;;;4955527;29;20787;-63
2021/07/19 02:25:24;;;;;;;5.40;3.87;;;19.50;99.90;;;;;;4953728;28;20501;-64
2021/07/19 02:27:52;;;;;;;4.40;3.67;;;19.50;99.90;;;;;;4955708;29;20890;-64
2021/07/19 02:30:19;;;;;;;5.43;3.67;;;19.40;99.90;;;;;;4953880;29;20464;-64
2021/07/19 02:32:49;;;;;;;4.17;3.73;;;19.30;99.90;;;;;;4955236;29;20422;-63
2021/07/19 02:35:16;;;;;;;4.30;3.90;;;19.30;99.90;;;;;;4955230;28;20936;-63
2021/07/19 02:37:43;;;;;;;6.57;3.80;;;19.40;99.90;;;;;;4955736;29;20409;-64
2021/07/19 02:40:12;;;;;;;3.63;3.33;;;19.40;99.90;;;;;;4952993;29;20527;-63
2021/07/19 02:42:43;;;;;;;5.47;4.10;;;19.40;99.90;;;;;;4955160;29;20509;-63
2021/07/19 02:45:11;;;;;;;4.43;4.03;;;19.40;99.90;;;;;;4955183;28;20464;-63
2021/07/19 02:47:37;;;;;;;4.73;4.33;;;19.30;99.90;;;;;;4955878;29;20437;-63
2021/07/19 02:50:06;;;;;;;4.43;3.53;;;19.40;99.90;;;;;;4955192;29;20565;-63
2021/07/19 02:52:34;;;;;;;4.40;3.83;;;19.40;99.90;;;;;;4955025;29;20237;-64
2021/07/19 02:55:03;;;;;;;3.93;3.60;;;19.30;99.90;;;;;;4954507;28;20459;-63
2021/07/19 02:57:29;;;;;;;4.23;3.93;;;19.30;99.90;;;;;;4954829;29;20414;-63
2021/07/19 02:59:56;;;;;;;7.63;4.80;;;19.30;99.90;;;;;;4955086;29;20418;-63
2021/07/19 03:02:25;;;;;;;5.50;4.60;;;19.30;99.90;;;;;;4953515;29;20556;-63
2021/07/19 03:04:55;;;;;;;4.70;4.30;;;19.30;99.90;;;;;;4954877;28;20436;-64
2021/07/19 03:07:22;;;;;;;4.13;3.73;;;19.10;99.90;;;;;;4954869;29;20556;-64
2021/07/19 03:09:52;;;;;;;4.33;3.90;;;19.10;99.90;;;;;;4953581;29;20495;-64
2021/07/19 03:12:22;;;;;;;4.30;3.90;;;19.10;99.90;;;;;;4955165;29;20767;-64
2021/07/19 03:14:49;;;;;;;4.40;4.00;;;19.10;99.90;;;;;;4955009;28;20440;-63
2021/07/19 03:17:17;;;;;;;5.37;4.33;;;19.00;99.90;;;;;;4954827;29;20417;-63
2021/07/19 03:19:44;;;;;;;3.90;3.60;;;19.00;99.90;;;;;;4954967;29;20476;-63
2021/07/19 03:22:11;;;;;;;6.23;4.20;;;19.10;99.90;;;;;;4958806;29;20934;-63
2021/07/19 03:24:38;;;;;;;5.20;3.83;;;19.00;99.90;;;;;;4958460;28;20484;-63
2021/07/19 03:27:04;;;;;;;4.13;3.73;;;19.00;99.90;;;;;;4958582;29;20417;-64
2021/07/19 03:29:31;;;;;;;4.63;4.13;;;19.00;99.90;;;;;;4958597;29;20465;-64
2021/07/19 03:31:58;;;;;;;4.33;4.03;;;18.90;99.90;;;;;;4958178;29;20515;-63
2021/07/19 03:34:25;;;;;;;5.10;4.60;;;18.90;99.90;;;;;;4957008;28;20508;-64
2021/07/19 03:36:53;;;;;;;5.83;4.50;;;18.80;99.90;;;;;;4958811;29;20406;-63
2021/07/19 03:39:19;;;;;;;4.93;4.47;;;18.80;99.90;;;;;;4958410;29;20919;-63
2021/07/19 03:41:45;;;;;;;5.90;4.77;;;18.80;99.90;;;;;;4958485;29;20497;-64
2021/07/19 03:44:12;;;;;;;5.97;3.97;;;18.80;99.90;;;;;;4957941;28;20595;-63
2021/07/19 03:46:41;;;;;;;4.13;3.73;;;18.70;99.90;;;;;;4957871;29;20269;-63
2021/07/19 03:49:07;;;;;;;8.37;4.77;;;18.80;99.90;;;;;;4958304;29;20945;-64
2021/07/19 03:51:34;;;;;;;4.37;3.97;;;18.90;99.90;;;;;;4958439;29;20428;-63
2021/07/19 03:53:59;;;;;;;4.30;3.90;;;18.90;99.90;;;;;;4949461;28;20453;-64
2021/07/19 03:56:27;;;;;;;4.57;4.17;;;18.90;99.90;;;;;;4932618;29;20418;-64
2021/07/19 03:58:55;;;;;;;7.10;4.27;;;19.00;99.90;;;;;;4920277;29;20191;-63
2021/07/19 04:01:21;;;;;;;5.67;4.87;;;18.90;99.90;;;;;;4920864;29;20964;-64
2021/07/19 04:03:51;;;;;;;4.40;4.00;;;18.90;99.90;;;;;;4945285;28;20846;-64
2021/07/19 04:06:18;;;;;;;5.97;5.47;;;18.90;99.90;;;;;;4938759;29;20462;-63
2021/07/19 04:08:44;;;;;;;4.93;4.20;;;19.00;99.90;;;;;;4946886;29;20433;-63
2021/07/19 04:11:13;;;;;;;5.00;4.60;;;18.90;99.90;;;;;;4957967;29;20767;-64
2021/07/19 04:13:40;;;;;;;4.33;3.93;;;18.90;99.90;;;;;;4957674;28;20776;-64
2021/07/19 04:16:06;;;;;;;4.33;3.93;;;19.00;99.90;;;;;;4956052;29;20413;-64
2021/07/19 04:18:32;;;;;;;3.87;3.53;;;19.10;99.90;;;;;;4957692;29;20990;-63
2021/07/19 04:20:59;;;;;;;3.90;3.60;;;19.10;99.90;;;;;;4957689;29;20845;-63
2021/07/19 04:23:25;;;;;;;7.60;5.13;;;19.20;99.90;;;;;;4956203;28;20441;-62
2021/07/19 04:25:51;;;;;;;4.83;4.23;;;19.30;99.90;;;;;;4957628;29;20822;-63
2021/07/19 04:28:21;;;;;;;8.43;4.47;;;19.40;99.90;;;;;;4957433;29;20489;-63
2021/07/19 04:30:48;;;;;;;4.30;3.90;;;19.40;99.90;;;;;;4958252;29;20285;-64
2021/07/19 04:33:18;;;;;;;5.00;4.60;;;19.40;99.90;;;;;;4956468;28;20408;-64
2021/07/19 04:35:46;;;;;;;5.27;4.70;;;19.50;99.90;;;;;;4957698;29;20401;-64
2021/07/19 04:38:19;;;;;;;4.70;4.20;;;19.60;99.90;;;;;;4955951;29;20417;-64
2021/07/19 04:40:46;;;;;;;3.97;3.57;;;19.60;99.90;;;;;;4957319;29;20402;-64
2021/07/19 04:43:14;;;;;;;4.57;4.13;;;19.70;99.90;;;;;;4955889;28;20496;-64
2021/07/19 04:45:40;;;;;;;4.70;4.30;;;19.70;99.90;;;;;;4957321;29;20398;-64
2021/07/19 04:48:06;;;;;;;9.07;4.37;;;19.60;99.90;;;;;;4957501;29;20421;-64
2021/07/19 04:50:31;;;;;;;6.47;4.60;;;19.60;99.90;;;;;;4955558;29;20201;-63
2021/07/19 04:52:57;;;;;;;4.20;3.80;;;19.70;99.90;;;;;;4957404;29;20170;-65
2021/07/19 04:55:25;;;;;;;6.77;3.77;;;19.80;99.90;;;;;;4955181;28;20658;-64
2021/07/19 04:57:53;;;;;;;6.53;4.23;;;19.80;99.90;;;;;;4957028;29;20177;-64
2021/07/19 05:00:20;;;;;;;4.10;3.80;;;19.80;99.90;;;;;;4957323;29;20784;-64
2021/07/19 05:02:47;;;;;;;4.93;4.10;;;19.90;99.90;;;;;;4955656;29;20422;-64
2021/07/19 05:05:19;;;;;;;4.97;4.57;;;20.00;99.90;;;;;;4956955;28;20792;-63
2021/07/19 05:07:46;;;;;;;4.80;4.40;;;20.00;99.90;;;;;;4956996;29;20394;-64
2021/07/19 05:10:19;;;;;;;4.47;3.97;;;20.00;99.90;;;;;;4956329;29;20481;-63
2021/07/19 05:12:51;;;;;;;3.97;3.57;;;20.10;99.90;;;;;;4957467;29;20414;-64
2021/07/19 05:15:17;;;;;;;4.30;4.00;;;20.20;99.90;;;;;;4955354;28;20441;-64
2021/07/19 05:17:44;;;;;;;4.87;4.43;;;20.20;99.90;;;;;;4956363;29;20847;-64
2021/07/19 05:20:11;;;;;;;4.40;4.00;;;20.40;99.90;;;;;;4956630;29;20463;-64
2021/07/19 05:22:37;;;;;;;4.30;4.00;;;20.50;99.90;;;;;;4956522;29;20417;-64
2021/07/19 05:25:03;;;;;;;4.23;3.60;;;20.70;99.90;;;;;;4956403;28;20433;-64
2021/07/19 05:27:28;;;;;;;4.00;3.70;;;20.90;99.90;;;;;;4957025;29;20523;-64
2021/07/19 05:29:54;;;;;;;3.97;3.67;;;21.00;99.90;;;;;;4956374;29;20452;-64
2021/07/19 05:32:20;;;;;;;4.20;3.90;;;21.30;99.90;;;;;;4956602;29;20178;-64
2021/07/19 05:34:45;;;;;;;4.97;4.20;;;21.40;99.90;;;;;;4955927;28;20193;-64
2021/07/19 05:37:11;;;;;;;4.57;4.17;;;21.60;99.90;;;;;;4956340;29;20631;-63
2021/07/19 05:39:36;;;;;;;4.07;3.73;;;21.70;99.90;;;;;;4956250;29;20174;-63
2021/07/19 05:42:02;;;;;;;4.20;3.63;;;21.80;99.90;;;;;;4956131;29;20170;-63
2021/07/19 05:44:28;;;;;;;5.20;4.10;;;21.90;99.90;;;;;;4954139;28;20241;-63
2021/07/19 05:46:54;;;;;;;6.13;3.97;;;22.00;99.90;;;;;;4955939;29;20457;-63
2021/07/19 05:49:20;;;;;;;4.70;4.17;;;22.10;99.90;;;;;;4955932;29;20252;-63
2021/07/19 05:51:46;;;;;;;4.13;3.73;;;22.10;99.90;;;;;;4953032;29;20648;-62
2021/07/19 05:54:11;;;;;;;4.40;4.00;;;22.20;99.90;;;;;;4956055;28;20434;-62
2021/07/19 05:56:37;;;;;;;5.50;4.07;;;22.30;99.90;;;;;;4955761;29;20574;-63
2021/07/19 05:59:03;;;;;;;4.10;3.80;;;22.40;99.90;;;;;;4955959;29;20170;-64
2021/07/19 06:01:29;;;;;;;5.53;4.30;;;22.30;99.90;;;;;;4955741;29;20174;-63
2021/07/19 06:03:55;;;;;;;5.40;3.93;;;22.40;99.90;;;;;;4955644;28;20441;-63
2021/07/19 06:06:20;;;;;;;5.20;4.00;;;22.50;99.90;;;;;;4955445;29;20182;-63
2021/07/19 06:08:46;;;;;;;7.17;4.20;;;22.50;99.90;;;;;;4955897;29;20303;-63
2021/07/19 06:11:12;;;;;;;5.27;3.90;;;22.60;99.90;;;;;;4955662;29;20716;-63
2021/07/19 06:13:38;;;;;;;4.97;4.50;;;22.70;99.90;;;;;;4953615;28;20425;-62
2021/07/19 06:16:04;;;;;;;5.30;4.80;;;22.70;99.90;;;;;;4936544;29;20178;-63
2021/07/19 06:18:29;;;;;;;4.63;4.20;;;22.50;99.90;;;;;;4936498;29;20433;-64
2021/07/19 06:20:55;;;;;;;8.43;5.23;;;22.40;99.90;;;;;;4942703;29;20233;-63
2021/07/19 06:23:21;;;;;;;5.60;4.30;;;22.40;99.90;;;;;;4955687;28;20261;-63
2021/07/19 06:25:46;;;;;;;5.00;4.60;;;22.10;99.90;;;;;;4955532;29;20173;-63
2021/07/19 06:28:12;;;;;;;6.87;4.50;;;22.00;99.90;;;;;;4956173;29;20174;-62
2021/07/19 06:30:38;;;;;;;4.60;4.13;;;22.10;99.90;;;;;;4955656;29;20198;-63
2021/07/19 06:33:04;;;;;;;6.70;4.90;;;22.20;99.90;;;;;;4955960;28;20197;-63
2021/07/19 06:35:30;;;;;;;5.80;5.00;;;22.30;99.90;;;;;;4955351;29;20436;-63
2021/07/19 06:37:56;;;;;;;5.73;5.13;;;22.40;99.90;;;;;;4955544;29;20841;-63
2021/07/19 06:40:22;;;;;;;5.80;4.77;;;22.40;99.90;;;;;;4954157;29;20500;-63
2021/07/19 06:42:48;;;;;;;5.93;5.00;;;22.60;99.90;;;;;;4955640;29;20417;-63
2021/07/19 06:45:14;;;;;;;5.50;4.40;;;22.60;99.90;;;;;;4955906;28;20450;-63
2021/07/19 06:47:41;;;;;;;5.50;4.40;;;22.60;99.90;;;;;;4948733;29;20182;-63
2021/07/19 06:50:09;;;;;;;6.70;4.93;;;22.60;99.90;;;;;;4925228;29;20459;-62
2021/07/19 06:52:35;;;;;;;4.87;4.40;;;22.70;99.90;;;;;;4917657;29;20510;-64
2021/07/19 06:55:01;;;;;;;12.20;5.93;;;22.70;99.90;;;;;;4916515;29;20475;-64
2021/07/19 06:57:27;;;;;;;5.63;4.90;;;22.60;99.90;;;;;;4940154;29;20906;-65
2021/07/19 06:59:52;;;;;;;5.33;4.80;;;22.70;99.90;;;;;;4955134;29;20170;-63
2021/07/19 07:02:18;;;;;;;7.60;4.40;;;22.60;99.90;;;;;;4955285;29;20169;-63
2021/07/19 07:04:44;;;;;;;6.10;4.77;;;22.70;99.90;;;;;;4955044;28;20562;-63
2021/07/19 07:07:10;;;;;;;10.20;4.97;;;22.90;99.90;;;;;;4953544;29;20185;-63
2021/07/19 07:09:36;;;;;;;5.00;4.50;;;23.10;99.90;;;;;;4955285;29;20445;-63
2021/07/19 07:12:02;;;;;;;5.73;4.43;;;23.00;99.90;;;;;;4955267;29;20899;-63
2021/07/19 07:14:28;;;;;;;5.70;5.20;;;23.00;99.90;;;;;;4954968;28;20222;-63
2021/07/19 07:16:53;;;;;;;6.00;4.67;;;23.00;99.90;;;;;;4955226;29;20181;-65
2021/07/19 07:19:19;;;;;;;5.50;4.60;;;23.20;99.90;;;;;;4953163;29;20200;-63
2021/07/19 07:21:44;;;;;;;5.20;4.80;;;23.30;99.90;;;;;;4955035;29;20174;-62
2021/07/19 07:24:10;;;;;;;5.27;4.77;;;23.40;99.90;;;;;;4925922;29;20206;-62
2021/07/19 07:26:36;;;;;;;5.93;5.43;;;23.40;99.90;;;;;;4928745;29;20178;-62
2021/07/19 07:29:02;;;;;;;5.23;4.73;;;23.30;99.90;;;;;;4935193;29;20197;-62
2021/07/19 07:31:28;;;;;;;5.83;5.20;;;23.20;99.90;;;;;;4954644;29;20572;-64
2021/07/19 07:33:58;;;;;;;5.57;4.97;;;23.20;99.90;;;;;;4953516;28;20421;-63
2021/07/19 07:36:25;;;;;;;5.73;4.90;;;23.30;99.90;;;;;;4954432;29;20155;-63
2021/07/19 07:38:50;;;;;;;7.07;4.80;;;23.30;99.90;;;;;;4954537;29;20414;-63
2021/07/19 07:41:17;;;;;;;4.77;4.27;;;23.40;99.90;;;;;;4954518;29;20410;-63
2021/07/19 07:43:43;;;;;;;5.20;4.70;;;23.50;99.90;;;;;;4954641;28;20202;-63
2021/07/19 07:46:09;;;;;;;6.67;5.10;;;23.50;99.90;;;;;;4952808;29;20429;-63
2021/07/19 07:48:36;;;;;;;6.17;5.67;;;23.50;99.90;;;;;;4954609;29;20236;-63
2021/07/19 07:51:03;;;;;;;5.00;4.60;;;23.60;99.90;;;;;;4954225;29;20461;-63
2021/07/19 07:53:28;;;;;;;8.93;5.10;;;23.60;99.90;;;;;;4952607;28;20446;-64
2021/07/19 07:55:54;;;;;;;4.70;4.30;;;23.80;99.90;;;;;;4954662;29;20505;-64
2021/07/19 07:58:19;;;;;;;5.80;5.30;;;23.70;99.90;;;;;;4954217;29;20174;-64
2021/07/19 08:00:45;;;;;;;7.07;5.00;;;23.70;99.90;;;;;;4952899;29;20174;-64
2021/07/19 08:03:11;;;;;;;7.57;4.50;;;24.00;99.90;;;;;;4952907;28;20179;-63
2021/07/19 08:05:37;;;;;;;5.63;5.13;;;24.10;99.90;;;;;;4953884;29;20571;-65
2021/07/19 08:08:03;;;;;;;8.53;4.80;;;24.00;99.90;;;;;;4956110;28;20186;-63
2021/07/19 08:10:29;;;;;;;7.00;4.63;;;24.10;99.90;;;;;;4956468;29;20268;-63
2021/07/19 08:12:55;;;;;;;6.40;4.70;;;24.20;99.90;;;;;;4957771;29;20397;-63
2021/07/19 08:15:21;;;;;;;5.63;5.03;;;24.20;99.90;;;;;;4957924;28;20198;-63
2021/07/19 08:17:47;;;;;;;5.70;5.10;;;24.30;99.90;;;;;;4957668;29;20410;-62
2021/07/19 08:20:14;;;;;;;6.57;5.07;;;24.30;99.90;;;;;;4957463;29;20519;-63
2021/07/19 08:22:39;;;;;;;5.30;4.80;;;24.40;99.90;;;;;;4938890;29;20178;-62
2021/07/19 08:25:05;;;;;;;8.47;5.17;;;24.40;99.90;;;;;;4938256;29;20966;-63
2021/07/19 08:27:31;;;;;;;7.30;4.60;;;24.50;99.90;;;;;;4938369;29;20175;-63
2021/07/19 08:29:56;;;;;;;5.70;5.20;;;24.60;99.90;;;;;;4938287;29;20586;-63
2021/07/19 08:32:22;;;;;;;5.63;5.03;;;24.80;99.90;;;;;;4938267;29;20171;-64
2021/07/19 08:34:48;;;;;;;5.70;5.10;;;24.70;99.90;;;;;;4938045;29;20183;-64
2021/07/19 08:37:14;;;;;;;6.00;4.87;;;24.60;99.90;;;;;;4947132;29;20398;-63
2021/07/19 08:39:41;;;;;;;5.53;4.93;;;24.60;99.90;;;;;;4957420;29;20344;-65
2021/07/19 08:42:11;;;;;;;5.47;4.90;;;24.50;99.90;;;;;;4957356;29;20414;-63
2021/07/19 08:44:37;;;;;;;6.13;5.23;;;24.50;99.90;;;;;;4957743;28;20547;-64
2021/07/19 08:47:06;;;;;;;10.70;5.40;;;24.60;99.90;;;;;;4957265;29;20949;-63
2021/07/19 08:49:32;;;;;;;8.47;5.20;;;24.70;99.90;;;;;;4955491;29;20178;-63
2021/07/19 08:51:59;;;;;;;6.67;5.07;;;24.80;99.90;;;;;;4957396;29;20460;-63
2021/07/19 08:54:26;;;;;;;7.27;5.30;;;25.10;99.90;;;;;;4957422;28;20436;-63
2021/07/19 08:56:54;;;;;;;6.53;5.20;;;25.30;99.90;;;;;;4957107;29;20409;-63
2021/07/19 08:59:20;;;;;;;7.87;5.20;;;25.30;99.90;;;;;;4957741;29;20420;-63
2021/07/19 09:01:46;;;;;;;6.47;5.80;;;25.20;99.90;;;;;;4957334;29;20914;-63
2021/07/19 09:04:17;;;;;;;6.83;5.70;;;25.20;99.90;;;;;;4956883;28;20186;-63
2021/07/19 09:06:43;;;;;;;10.77;6.83;;;25.10;99.90;;;;;;4957229;29;20424;-64
2021/07/19 09:09:09;;;;;;;10.40;5.63;;;25.10;99.90;;;;;;4956853;29;20469;-62
2021/07/19 09:11:34;;;;;;;8.67;4.70;;;25.10;99.90;;;;;;4957104;29;20805;-63
2021/07/19 09:14:06;;;;;;;6.27;5.20;;;25.20;99.90;;;;;;4956662;28;20190;-62
2021/07/19 09:16:39;;;;;;;5.40;4.80;;;25.40;99.90;;;;;;4957065;29;20173;-63
2021/07/19 09:19:07;;;;;;;7.17;5.20;;;25.40;99.90;;;;;;4956262;28;20728;-63
2021/07/19 09:21:34;;;;;;;6.83;4.90;;;25.50;99.90;;;;;;4956616;29;20830;-63
2021/07/19 09:24:07;;;;;;;5.90;5.13;;;25.70;99.90;;;;;;4956503;28;20484;-62
2021/07/19 09:26:39;;;;;;;7.33;5.20;;;26.00;99.90;;;;;;4956756;29;20405;-63
2021/07/19 09:29:11;;;;;;;5.87;4.77;;;25.80;99.90;;;;;;4956294;28;20410;-63
2021/07/19 09:31:39;;;;;;;5.63;4.60;;;25.70;99.90;;;;;;4956572;29;20485;-63
2021/07/19 09:34:20;;;;;;;5.83;5.23;;;25.90;99.90;;;;;;4956115;28;20437;-62
2021/07/19 09:37:00;;;;;;;6.27;4.97;;;26.00;99.90;;;;;;4933512;29;20422;-63
2021/07/19 09:39:27;;;;;;;5.93;5.33;;;25.90;99.90;;;;;;4931573;29;20411;-62
2021/07/19 09:42:06;;;;;;;7.20;5.10;;;25.90;99.90;;;;;;4918383;29;20403;-62
2021/07/19 09:44:32;;;;;;;5.40;4.90;;;25.80;99.90;;;;;;4926354;29;21027;-63
2021/07/19 09:47:02;;;;;;;6.43;5.80;;;25.80;99.90;;;;;;4937461;29;20493;-63
2021/07/19 09:49:30;;;;;;;6.60;5.53;;;25.70;99.90;;;;;;4949899;29;20174;-63
2021/07/19 09:52:03;;;;;;;5.30;4.80;;;26.00;99.90;;;;;;4955992;29;20873;-62
2021/07/19 09:54:40;;;;;;;5.60;5.00;;;26.00;99.90;;;;;;4954617;28;20927;-62
2021/07/19 09:57:06;;;;;;;8.00;5.60;;;26.50;99.90;;;;;;4955888;29;20397;-63
2021/07/19 09:59:33;;;;;;;4.90;4.40;;;26.60;99.90;;;;;;4955703;29;20906;-63
2021/07/19 10:02:01;;;;;;;4.60;4.20;;;26.70;99.90;;;;;;4955962;29;20421;-63
2021/07/19 10:04:26;;;;;;;5.07;4.60;;;26.90;99.90;;;;;;4955221;28;20437;-62
2021/07/19 10:06:54;;;;;;;5.07;4.57;;;27.40;99.90;;;;;;4955703;29;20402;-63
2021/07/19 10:09:23;;;;;;;6.13;4.77;;;27.70;99.90;;;;;;4955507;29;20174;-62
2021/07/19 10:11:54;;;;;;;5.50;5.00;;;27.70;99.90;;;;;;4955603;29;20915;-63
2021/07/19 10:14:28;;;;;;;6.10;5.50;;;27.80;99.90;;;;;;4955204;28;20450;-64
2021/07/19 10:16:56;;;;;;;4.70;4.30;;;27.90;99.90;;;;;;4955440;29;20469;-63
2021/07/19 10:19:23;;;;;;;5.00;4.50;;;27.60;99.90;;;;;;4954930;29;20409;-64
2021/07/19 10:21:49;;;;;;;6.30;4.90;;;27.70;99.90;;;;;;4952152;29;20523;-62
2021/07/19 10:24:15;;;;;;;5.67;5.17;;;27.70;99.90;;;;;;4946521;28;20437;-62
2021/07/19 10:26:41;;;;;;;5.63;4.70;;;27.60;99.90;;;;;;4955703;29;20933;-62
2021/07/19 10:29:07;;;;;;;6.27;4.63;;;27.50;99.90;;;;;;4955600;28;20545;-63
2021/07/19 10:31:34;;;;;;;6.57;5.33;;;27.00;99.90;;;;;;4954354;28;20461;-62
2021/07/19 10:34:03;;;;;;;5.40;4.90;;;26.60;99.90;;;;;;4954615;28;20548;-63
2021/07/19 10:36:47;;;;;;;6.23;4.53;;;26.60;99.90;;;;;;4956339;29;20963;-63
2021/07/19 10:39:23;;;;;;;6.90;4.90;;;26.70;99.90;;;;;;4955517;29;20414;-64
2021/07/19 10:42:02;;;;;;;5.13;4.50;;;26.90;99.90;;;;;;4953439;29;20607;-63
2021/07/19 10:44:33;;;;;;;4.73;4.27;;;27.40;99.90;;;;;;4955125;28;20958;-64
2021/07/19 10:47:09;;;;;;;4.77;4.27;;;27.60;99.90;;;;;;4955275;29;20813;-65
2021/07/19 10:49:40;;;;;;;4.27;3.90;;;27.70;99.90;;;;;;4953250;29;20429;-64
2021/07/19 10:52:09;;;;;;;5.50;4.30;;;27.70;99.90;;;;;;4955225;29;20398;-63
2021/07/19 10:54:46;;;;;;;5.67;4.13;;;28.00;99.90;;;;;;4954515;28;20430;-63
2021/07/19 10:57:13;;;;;;;4.37;3.90;;;28.40;99.70;;;;;;4955162;29;20405;-64
2021/07/19 11:00:00;;;;;;;4.33;3.73;;;28.50;99.90;;;;;;4953320;29;20433;-65
2021/07/19 11:02:28;;;;;;;4.23;3.83;;;28.40;99.90;;;;;;4955059;29;20820;-64
2021/07/19 11:04:54;;;;;;;4.30;3.87;;;28.40;99.20;;;;;;4954569;28;20437;-63
2021/07/19 11:07:21;;;;;;;6.40;4.77;;;28.50;98.90;;;;;;4955133;29;20414;-63
2021/07/19 11:09:47;;;;;;;4.90;4.40;;;28.60;98.20;;;;;;4954931;29;20811;-62
2021/07/19 11:12:16;;;;;;;3.90;3.60;;;28.60;97.70;;;;;;4954672;29;20457;-63
2021/07/19 11:14:48;;;;;;;4.90;3.47;;;28.30;97.40;;;;;;4954333;28;20241;-63
2021/07/19 11:17:15;;;;;;;4.00;3.63;;;28.50;97.50;;;;;;4954575;29;20918;-63
2021/07/19 11:19:41;;;;;;;4.43;4.03;;;28.80;97.40;;;;;;4954601;29;20408;-63
2021/07/19 11:22:23;;;;;;;6.50;4.27;;;29.00;97.70;;;;;;4954949;29;20498;-63
2021/07/19 11:24:51;;;;;;;4.17;3.63;;;28.80;96.80;;;;;;4953141;28;20528;-63
2021/07/19 11:27:31;;;;;;;3.47;3.17;;;28.80;96.40;;;;;;4954479;29;20919;-63
2021/07/19 11:30:27;;;;;;;3.80;3.40;;;28.80;96.40;;;;;;4953259;29;20935;-64
2021/07/19 11:32:53;;;;;;;5.20;3.17;;;28.90;95.80;;;;;;4951629;29;20417;-63
2021/07/19 11:35:24;;;;;;;4.23;3.20;;;30.30;94.00;;;;;;4954737;28;20499;-63
2021/07/19 11:37:56;;;;;;;3.67;3.17;;;31.60;92.50;;;;;;4954691;29;20209;-63
2021/07/19 11:40:38;;;;;;;5.03;3.33;;;32.50;90.80;;;;;;4954864;29;20397;-63
2021/07/19 11:43:25;;;;;;;6.80;3.40;;;31.40;91.40;;;;;;4956352;28;20403;-63
2021/07/19 11:45:53;;;;;;;4.37;2.73;;;30.40;93.10;;;;;;4958205;29;20409;-63
2021/07/19 11:48:22;;;;;;;3.70;3.40;;;31.10;93.10;;;;;;4958349;29;20513;-63
2021/07/19 11:50:49;;;;;;;4.30;3.10;;;31.40;91.80;;;;;;4958255;29;20825;-63
2021/07/19 11:53:19;;;;;;;3.30;2.83;;;32.00;88.60;;;;;;4956053;28;20425;-64
2021/07/19 11:55:45;;;;;;;3.40;3.10;;;33.00;86.20;;;;;;4958532;29;20902;-63
2021/07/19 11:58:11;;;;;;;6.47;2.90;;;32.50;85.50;;;;;;4958251;29;20402;-63
2021/07/19 12:00:38;;;;;;;3.43;2.93;;;32.20;88.00;;;;;;4957888;29;20224;-63
2021/07/19 12:03:07;;;;;;;4.53;3.00;;;32.90;87.00;;;;;;4958000;28;20254;-63
2021/07/19 12:05:33;;;;;;;4.47;2.93;;;34.10;82.00;;;;;;4958091;29;20496;-64
2021/07/19 12:08:08;;;;;;;3.67;3.00;;;33.30;80.70;;;;;;4957429;29;20410;-63
2021/07/19 12:10:36;;;;;;;3.87;2.67;;;32.90;82.20;;;;;;4956446;29;20801;-63
2021/07/19 12:13:16;;;;;;;2.93;2.17;;;33.20;79.70;;;;;;4958049;29;20406;-63
2021/07/19 12:15:53;;;;;;;3.03;2.00;;;33.60;77.70;;;;;;4956644;29;20488;-63
2021/07/19 12:18:42;;;;;;;4.60;2.83;;;33.70;78.00;;;;;;4957888;29;20413;-63
2021/07/19 12:21:10;;;;;;;5.10;2.53;;;34.80;73.40;;;;;;4956639;29;20483;-63
2021/07/19 12:23:44;;;;;;;2.83;2.20;;;34.60;73.30;;;;;;4957556;28;20931;-64
2021/07/19 12:26:16;;;;;;;6.40;2.60;;;33.50;74.00;;;;;;4957810;29;20405;-63
2021/07/19 12:29:02;;;;;;;3.03;2.40;;;33.40;74.60;;;;;;4957561;28;20390;-63
2021/07/19 12:31:42;;;;;;;4.80;2.07;;;33.80;70.50;;;;;;4950219;29;20446;-62
2021/07/19 12:34:13;;;;;;;3.33;2.43;;;33.30;72.70;;;;;;4938335;29;20931;-62
2021/07/19 12:36:40;;;;;;;3.80;2.03;;;34.50;72.10;;;;;;4930046;29;20429;-63
2021/07/19 12:39:09;;;;;;;2.90;2.60;;;34.60;69.80;;;;;;4934659;29;20433;-64
2021/07/19 12:41:35;;;;;;;2.10;1.90;;;35.40;64.70;;;;;;4938376;29;20407;-63
2021/07/19 12:44:04;;;;;;;2.80;2.10;;;35.50;63.10;;;;;;4937876;29;20457;-64
2021/07/19 12:46:30;;;;;;;2.30;1.90;;;36.20;63.50;;;;;;4937918;29;20505;-64
2021/07/19 12:48:55;;;;;;;5.37;2.53;;;36.40;61.40;;;;;;4937892;29;20490;-63
2021/07/19 12:51:26;;;;;;;3.03;2.50;;;35.20;64.10;;;;;;4952151;29;20745;-64